sensor_id;sensor_type;location;lat;lon;timestamp;P1;durP1;ratioP1;P2;durP2;ratioP2
77876;SDS011;67251;50.844;7.978;2024-03-02T00:01:50;5.03;;;1.83;;
77876;SDS011;67251;50.844;7.978;2024-03-02T00:04:15;5.95;;;2.22;;
77876;SDS011;67251;50.844;7.978;2024-03-02T00:06:42;7.13;;;2.22;;
77876;SDS011;67251;50.844;7.978;2024-03-02T00:09:08;5.55;;;2.17;;
77876;SDS011;67251;50.844;7.978;2024-03-02T00:11:36;5.80;;;2.13;;
77876;SDS011;67251;50.844;7.978;2024-03-02T00:14:02;5.20;;;2.22;;
77876;SDS011;67251;50.844;7.978;2024-03-02T00:16:31;6.50;;;2.33;;
77876;SDS011;67251;50.844;7.978;2024-03-02T00:19:01;5.68;;;2.60;;
77876;SDS011;67251;50.844;7.978;2024-03-02T00:21:31;5.75;;;2.50;;
77876;SDS011;67251;50.844;7.978;2024-03-02T00:23:58;7.03;;;2.55;;
77876;SDS011;67251;50.844;7.978;2024-03-02T00:26:25;6.43;;;2.85;;
77876;SDS011;67251;50.844;7.978;2024-03-02T00:28:50;6.57;;;2.50;;
77876;SDS011;67251;50.844;7.978;2024-03-02T00:31:20;6.40;;;2.22;;
77876;SDS011;67251;50.844;7.978;2024-03-02T00:33:46;8.55;;;3.13;;
77876;SDS011;67251;50.844;7.978;2024-03-02T00:36:20;5.32;;;2.50;;
77876;SDS011;67251;50.844;7.978;2024-03-02T00:38:50;4.18;;;1.60;;
77876;SDS011;67251;50.844;7.978;2024-03-02T00:43:50;6.77;;;2.83;;
77876;SDS011;67251;50.844;7.978;2024-03-02T00:46:38;6.68;;;2.75;;
77876;SDS011;67251;50.844;7.978;2024-03-02T00:51:51;7.43;;;3.03;;
77876;SDS011;67251;50.844;7.978;2024-03-02T00:54:19;5.38;;;2.40;;
77876;SDS011;67251;50.844;7.978;2024-03-02T00:56:45;6.03;;;2.60;;
77876;SDS011;67251;50.844;7.978;2024-03-02T00:59:12;6.25;;;2.42;;
77876;SDS011;67251;50.844;7.978;2024-03-02T01:01:37;6.32;;;2.60;;
77876;SDS011;67251;50.844;7.978;2024-03-02T01:04:03;7.50;;;3.08;;
77876;SDS011;67251;50.844;7.978;2024-03-02T01:06:30;7.53;;;3.00;;
77876;SDS011;67251;50.844;7.978;2024-03-02T01:08:55;6.53;;;2.92;;
77876;SDS011;67251;50.844;7.978;2024-03-02T01:11:20;6.10;;;2.70;;
77876;SDS011;67251;50.844;7.978;2024-03-02T01:13:49;7.25;;;2.97;;
77876;SDS011;67251;50.844;7.978;2024-03-02T01:16:14;7.35;;;3.05;;
77876;SDS011;67251;50.844;7.978;2024-03-02T01:18:40;7.38;;;3.00;;
77876;SDS011;67251;50.844;7.978;2024-03-02T01:21:06;10.27;;;3.22;;
77876;SDS011;67251;50.844;7.978;2024-03-02T01:23:32;6.88;;;2.70;;
77876;SDS011;67251;50.844;7.978;2024-03-02T01:25:57;7.50;;;3.03;;
77876;SDS011;67251;50.844;7.978;2024-03-02T01:28:23;7.25;;;3.10;;
77876;SDS011;67251;50.844;7.978;2024-03-02T01:30:48;7.85;;;3.65;;
77876;SDS011;67251;50.844;7.978;2024-03-02T01:33:14;6.45;;;2.58;;
77876;SDS011;67251;50.844;7.978;2024-03-02T01:35:39;7.82;;;2.90;;
77876;SDS011;67251;50.844;7.978;2024-03-02T01:38:05;7.05;;;3.00;;
77876;SDS011;67251;50.844;7.978;2024-03-02T01:43:52;6.40;;;2.67;;
77876;SDS011;67251;50.844;7.978;2024-03-02T01:46:17;8.10;;;3.50;;
77876;SDS011;67251;50.844;7.978;2024-03-02T01:48:43;5.72;;;2.50;;
77876;SDS011;67251;50.844;7.978;2024-03-02T01:51:08;8.80;;;3.60;;
77876;SDS011;67251;50.844;7.978;2024-03-02T01:53:34;7.95;;;2.80;;
77876;SDS011;67251;50.844;7.978;2024-03-02T01:56:00;5.88;;;2.80;;
77876;SDS011;67251;50.844;7.978;2024-03-02T01:58:26;7.57;;;2.97;;
77876;SDS011;67251;50.844;7.978;2024-03-02T02:00:52;9.88;;;3.83;;
77876;SDS011;67251;50.844;7.978;2024-03-02T02:03:17;5.85;;;1.77;;
77876;SDS011;67251;50.844;7.978;2024-03-02T02:05:42;9.60;;;4.00;;
77876;SDS011;67251;50.844;7.978;2024-03-02T02:08:08;10.88;;;4.55;;
77876;SDS011;67251;50.844;7.978;2024-03-02T02:10:33;10.77;;;4.22;;
77876;SDS011;67251;50.844;7.978;2024-03-02T02:12:59;8.40;;;3.40;;
77876;SDS011;67251;50.844;7.978;2024-03-02T02:15:25;6.85;;;2.97;;
77876;SDS011;67251;50.844;7.978;2024-03-02T02:17:52;9.23;;;4.03;;
77876;SDS011;67251;50.844;7.978;2024-03-02T02:20:18;8.55;;;3.40;;
77876;SDS011;67251;50.844;7.978;2024-03-02T02:23:02;10.93;;;4.50;;
77876;SDS011;67251;50.844;7.978;2024-03-02T02:25:30;9.25;;;4.25;;
77876;SDS011;67251;50.844;7.978;2024-03-02T02:27:55;11.15;;;4.45;;
77876;SDS011;67251;50.844;7.978;2024-03-02T02:30:25;7.72;;;4.22;;
77876;SDS011;67251;50.844;7.978;2024-03-02T02:32:52;9.95;;;4.35;;
77876;SDS011;67251;50.844;7.978;2024-03-02T02:35:18;9.85;;;4.22;;
77876;SDS011;67251;50.844;7.978;2024-03-02T02:37:44;8.43;;;3.83;;
77876;SDS011;67251;50.844;7.978;2024-03-02T02:40:11;9.55;;;3.95;;
77876;SDS011;67251;50.844;7.978;2024-03-02T02:42:37;9.60;;;3.92;;
77876;SDS011;67251;50.844;7.978;2024-03-02T02:45:03;6.32;;;2.67;;
77876;SDS011;67251;50.844;7.978;2024-03-02T02:47:29;10.57;;;3.60;;
77876;SDS011;67251;50.844;7.978;2024-03-02T02:49:55;7.78;;;3.53;;
77876;SDS011;67251;50.844;7.978;2024-03-02T02:52:20;8.10;;;3.38;;
77876;SDS011;67251;50.844;7.978;2024-03-02T02:54:46;7.15;;;3.08;;
77876;SDS011;67251;50.844;7.978;2024-03-02T02:57:11;7.05;;;3.00;;
77876;SDS011;67251;50.844;7.978;2024-03-02T02:59:37;6.55;;;2.75;;
77876;SDS011;67251;50.844;7.978;2024-03-02T03:02:02;7.15;;;2.35;;
77876;SDS011;67251;50.844;7.978;2024-03-02T03:04:27;7.40;;;2.40;;
77876;SDS011;67251;50.844;7.978;2024-03-02T03:06:53;8.00;;;2.60;;
77876;SDS011;67251;50.844;7.978;2024-03-02T03:09:18;7.88;;;2.85;;
77876;SDS011;67251;50.844;7.978;2024-03-02T03:11:43;6.72;;;2.92;;
77876;SDS011;67251;50.844;7.978;2024-03-02T03:14:09;8.55;;;2.60;;
77876;SDS011;67251;50.844;7.978;2024-03-02T03:16:34;8.90;;;3.20;;
77876;SDS011;67251;50.844;7.978;2024-03-02T03:19:00;8.27;;;3.08;;
77876;SDS011;67251;50.844;7.978;2024-03-02T03:21:25;8.48;;;3.13;;
77876;SDS011;67251;50.844;7.978;2024-03-02T03:23:50;8.02;;;3.15;;
77876;SDS011;67251;50.844;7.978;2024-03-02T03:26:16;5.88;;;2.47;;
77876;SDS011;67251;50.844;7.978;2024-03-02T03:28:41;4.15;;;1.85;;
77876;SDS011;67251;50.844;7.978;2024-03-02T03:31:06;7.28;;;3.08;;
77876;SDS011;67251;50.844;7.978;2024-03-02T03:33:32;6.93;;;2.95;;
77876;SDS011;67251;50.844;7.978;2024-03-02T03:35:57;7.22;;;2.30;;
77876;SDS011;67251;50.844;7.978;2024-03-02T03:38:22;6.65;;;2.72;;
77876;SDS011;67251;50.844;7.978;2024-03-02T03:40:48;8.48;;;2.97;;
77876;SDS011;67251;50.844;7.978;2024-03-02T03:43:13;9.52;;;3.10;;
77876;SDS011;67251;50.844;7.978;2024-03-02T03:45:38;8.65;;;3.17;;
77876;SDS011;67251;50.844;7.978;2024-03-02T03:48:04;8.43;;;3.13;;
77876;SDS011;67251;50.844;7.978;2024-03-02T03:50:29;5.10;;;2.15;;
77876;SDS011;67251;50.844;7.978;2024-03-02T03:52:55;8.98;;;3.63;;
77876;SDS011;67251;50.844;7.978;2024-03-02T03:55:20;7.95;;;2.80;;
77876;SDS011;67251;50.844;7.978;2024-03-02T03:57:46;6.72;;;2.67;;
77876;SDS011;67251;50.844;7.978;2024-03-02T04:00:11;8.65;;;2.67;;
77876;SDS011;67251;50.844;7.978;2024-03-02T04:02:37;8.13;;;3.10;;
77876;SDS011;67251;50.844;7.978;2024-03-02T04:05:03;8.68;;;3.33;;
77876;SDS011;67251;50.844;7.978;2024-03-02T04:07:33;7.72;;;3.13;;
77876;SDS011;67251;50.844;7.978;2024-03-02T04:10:04;7.45;;;3.13;;
77876;SDS011;67251;50.844;7.978;2024-03-02T04:12:30;8.27;;;3.38;;
77876;SDS011;67251;50.844;7.978;2024-03-02T04:14:55;7.18;;;2.50;;
77876;SDS011;67251;50.844;7.978;2024-03-02T04:17:20;8.15;;;4.10;;
77876;SDS011;67251;50.844;7.978;2024-03-02T04:19:45;6.60;;;2.83;;
77876;SDS011;67251;50.844;7.978;2024-03-02T04:22:11;7.78;;;2.67;;
77876;SDS011;67251;50.844;7.978;2024-03-02T04:24:36;9.57;;;3.65;;
77876;SDS011;67251;50.844;7.978;2024-03-02T04:27:01;7.43;;;3.03;;
77876;SDS011;67251;50.844;7.978;2024-03-02T04:29:27;8.55;;;2.92;;
77876;SDS011;67251;50.844;7.978;2024-03-02T04:31:53;9.30;;;3.75;;
77876;SDS011;67251;50.844;7.978;2024-03-02T04:34:18;10.32;;;4.05;;
77876;SDS011;67251;50.844;7.978;2024-03-02T04:36:43;9.13;;;3.88;;
77876;SDS011;67251;50.844;7.978;2024-03-02T04:39:08;5.07;;;2.03;;
77876;SDS011;67251;50.844;7.978;2024-03-02T04:41:34;11.98;;;4.72;;
77876;SDS011;67251;50.844;7.978;2024-03-02T04:44:00;6.93;;;3.15;;
77876;SDS011;67251;50.844;7.978;2024-03-02T04:46:25;7.20;;;2.75;;
77876;SDS011;67251;50.844;7.978;2024-03-02T04:48:51;10.48;;;3.95;;
77876;SDS011;67251;50.844;7.978;2024-03-02T04:51:20;10.63;;;4.30;;
77876;SDS011;67251;50.844;7.978;2024-03-02T04:53:46;8.85;;;3.70;;
77876;SDS011;67251;50.844;7.978;2024-03-02T04:56:11;7.45;;;3.15;;
77876;SDS011;67251;50.844;7.978;2024-03-02T04:58:51;9.63;;;3.47;;
77876;SDS011;67251;50.844;7.978;2024-03-02T05:01:17;11.15;;;4.10;;
77876;SDS011;67251;50.844;7.978;2024-03-02T05:03:42;8.85;;;3.60;;
77876;SDS011;67251;50.844;7.978;2024-03-02T05:06:07;7.60;;;2.95;;
77876;SDS011;67251;50.844;7.978;2024-03-02T05:08:33;8.95;;;4.00;;
77876;SDS011;67251;50.844;7.978;2024-03-02T05:10:59;9.77;;;3.97;;
77876;SDS011;67251;50.844;7.978;2024-03-02T05:13:44;11.50;;;3.92;;
77876;SDS011;67251;50.844;7.978;2024-03-02T05:16:09;9.27;;;3.92;;
77876;SDS011;67251;50.844;7.978;2024-03-02T05:18:35;9.02;;;3.10;;
77876;SDS011;67251;50.844;7.978;2024-03-02T05:21:03;6.60;;;2.88;;
77876;SDS011;67251;50.844;7.978;2024-03-02T05:23:28;9.85;;;3.85;;
77876;SDS011;67251;50.844;7.978;2024-03-02T05:25:54;8.02;;;3.63;;
77876;SDS011;67251;50.844;7.978;2024-03-02T05:28:19;11.30;;;3.28;;
77876;SDS011;67251;50.844;7.978;2024-03-02T05:30:44;7.93;;;3.33;;
77876;SDS011;67251;50.844;7.978;2024-03-02T05:33:10;8.73;;;3.65;;
77876;SDS011;67251;50.844;7.978;2024-03-02T05:35:35;9.55;;;4.30;;
77876;SDS011;67251;50.844;7.978;2024-03-02T05:38:00;7.80;;;3.45;;
77876;SDS011;67251;50.844;7.978;2024-03-02T05:40:26;8.15;;;3.30;;
77876;SDS011;67251;50.844;7.978;2024-03-02T05:42:51;7.95;;;3.72;;
77876;SDS011;67251;50.844;7.978;2024-03-02T05:45:16;8.27;;;3.17;;
77876;SDS011;67251;50.844;7.978;2024-03-02T05:47:42;7.88;;;3.50;;
77876;SDS011;67251;50.844;7.978;2024-03-02T05:50:07;8.90;;;3.42;;
77876;SDS011;67251;50.844;7.978;2024-03-02T05:52:33;8.95;;;3.83;;
77876;SDS011;67251;50.844;7.978;2024-03-02T05:54:58;9.23;;;4.22;;
77876;SDS011;67251;50.844;7.978;2024-03-02T05:57:24;10.68;;;3.63;;
77876;SDS011;67251;50.844;7.978;2024-03-02T06:00:12;5.88;;;2.75;;
77876;SDS011;67251;50.844;7.978;2024-03-02T06:02:40;5.82;;;2.75;;
77876;SDS011;67251;50.844;7.978;2024-03-02T06:05:06;10.05;;;3.70;;
77876;SDS011;67251;50.844;7.978;2024-03-02T06:07:32;9.35;;;3.70;;
77876;SDS011;67251;50.844;7.978;2024-03-02T06:09:57;7.30;;;2.83;;
77876;SDS011;67251;50.844;7.978;2024-03-02T06:12:23;7.85;;;3.08;;
77876;SDS011;67251;50.844;7.978;2024-03-02T06:14:49;6.90;;;2.53;;
77876;SDS011;67251;50.844;7.978;2024-03-02T06:17:14;8.80;;;3.60;;
77876;SDS011;67251;50.844;7.978;2024-03-02T06:19:39;8.77;;;3.72;;
77876;SDS011;67251;50.844;7.978;2024-03-02T06:22:05;7.20;;;2.03;;
77876;SDS011;67251;50.844;7.978;2024-03-02T06:24:35;9.07;;;3.35;;
77876;SDS011;67251;50.844;7.978;2024-03-02T06:27:01;9.75;;;3.88;;
77876;SDS011;67251;50.844;7.978;2024-03-02T06:29:26;8.27;;;3.20;;
77876;SDS011;67251;50.844;7.978;2024-03-02T06:31:51;8.85;;;2.83;;
77876;SDS011;67251;50.844;7.978;2024-03-02T06:34:17;9.60;;;3.85;;
77876;SDS011;67251;50.844;7.978;2024-03-02T06:36:42;9.10;;;3.25;;
77876;SDS011;67251;50.844;7.978;2024-03-02T06:39:07;9.02;;;3.95;;
77876;SDS011;67251;50.844;7.978;2024-03-02T06:41:33;8.05;;;3.20;;
77876;SDS011;67251;50.844;7.978;2024-03-02T06:43:58;9.80;;;3.92;;
77876;SDS011;67251;50.844;7.978;2024-03-02T06:46:26;10.10;;;3.50;;
77876;SDS011;67251;50.844;7.978;2024-03-02T06:48:52;7.95;;;3.60;;
77876;SDS011;67251;50.844;7.978;2024-03-02T06:51:17;8.07;;;3.25;;
77876;SDS011;67251;50.844;7.978;2024-03-02T06:53:42;8.98;;;3.42;;
77876;SDS011;67251;50.844;7.978;2024-03-02T06:56:08;9.95;;;3.45;;
77876;SDS011;67251;50.844;7.978;2024-03-02T06:58:34;7.75;;;3.55;;
77876;SDS011;67251;50.844;7.978;2024-03-02T07:00:59;8.02;;;2.90;;
77876;SDS011;67251;50.844;7.978;2024-03-02T07:03:27;9.93;;;3.47;;
77876;SDS011;67251;50.844;7.978;2024-03-02T07:05:53;7.68;;;3.38;;
77876;SDS011;67251;50.844;7.978;2024-03-02T07:08:18;6.82;;;2.67;;
77876;SDS011;67251;50.844;7.978;2024-03-02T07:10:43;7.45;;;3.13;;
77876;SDS011;67251;50.844;7.978;2024-03-02T07:13:09;9.05;;;3.33;;
77876;SDS011;67251;50.844;7.978;2024-03-02T07:15:34;9.50;;;3.85;;
77876;SDS011;67251;50.844;7.978;2024-03-02T07:18:15;10.85;;;3.83;;
77876;SDS011;67251;50.844;7.978;2024-03-02T07:20:40;7.93;;;3.92;;
77876;SDS011;67251;50.844;7.978;2024-03-02T07:23:05;14.00;;;5.25;;
77876;SDS011;67251;50.844;7.978;2024-03-02T07:25:31;9.05;;;3.13;;
77876;SDS011;67251;50.844;7.978;2024-03-02T07:27:56;7.40;;;3.67;;
77876;SDS011;67251;50.844;7.978;2024-03-02T07:30:22;9.77;;;4.13;;
77876;SDS011;67251;50.844;7.978;2024-03-02T07:32:49;7.93;;;3.38;;
77876;SDS011;67251;50.844;7.978;2024-03-02T07:35:15;9.23;;;4.30;;
77876;SDS011;67251;50.844;7.978;2024-03-02T07:37:41;9.52;;;3.58;;
77876;SDS011;67251;50.844;7.978;2024-03-02T07:40:07;9.25;;;3.95;;
77876;SDS011;67251;50.844;7.978;2024-03-02T07:42:39;11.98;;;5.20;;
77876;SDS011;67251;50.844;7.978;2024-03-02T07:45:05;9.13;;;3.55;;
77876;SDS011;67251;50.844;7.978;2024-03-02T07:47:31;10.32;;;3.97;;
77876;SDS011;67251;50.844;7.978;2024-03-02T07:49:58;6.88;;;3.08;;
77876;SDS011;67251;50.844;7.978;2024-03-02T07:52:23;8.45;;;3.05;;
77876;SDS011;67251;50.844;7.978;2024-03-02T07:54:48;7.13;;;3.00;;
77876;SDS011;67251;50.844;7.978;2024-03-02T07:57:14;6.20;;;3.17;;
77876;SDS011;67251;50.844;7.978;2024-03-02T07:59:39;7.10;;;2.50;;
77876;SDS011;67251;50.844;7.978;2024-03-02T08:02:04;9.57;;;4.05;;
77876;SDS011;67251;50.844;7.978;2024-03-02T08:04:30;7.90;;;3.55;;
77876;SDS011;67251;50.844;7.978;2024-03-02T08:06:55;9.77;;;4.00;;
77876;SDS011;67251;50.844;7.978;2024-03-02T08:09:21;7.57;;;3.10;;
77876;SDS011;67251;50.844;7.978;2024-03-02T08:11:46;6.95;;;2.65;;
77876;SDS011;67251;50.844;7.978;2024-03-02T08:14:12;4.30;;;1.63;;
77876;SDS011;67251;50.844;7.978;2024-03-02T08:16:37;5.50;;;1.80;;
77876;SDS011;67251;50.844;7.978;2024-03-02T08:19:03;4.50;;;1.42;;
77876;SDS011;67251;50.844;7.978;2024-03-02T08:21:28;4.20;;;1.70;;
77876;SDS011;67251;50.844;7.978;2024-03-02T08:23:57;6.20;;;1.95;;
77876;SDS011;67251;50.844;7.978;2024-03-02T08:26:23;5.47;;;1.95;;
77876;SDS011;67251;50.844;7.978;2024-03-02T08:28:49;4.18;;;1.42;;
77876;SDS011;67251;50.844;7.978;2024-03-02T08:31:14;4.28;;;1.75;;
77876;SDS011;67251;50.844;7.978;2024-03-02T08:33:39;4.72;;;1.73;;
77876;SDS011;67251;50.844;7.978;2024-03-02T08:36:05;4.18;;;1.80;;
77876;SDS011;67251;50.844;7.978;2024-03-02T08:38:31;4.57;;;1.48;;
77876;SDS011;67251;50.844;7.978;2024-03-02T08:40:56;3.70;;;1.42;;
77876;SDS011;67251;50.844;7.978;2024-03-02T08:43:22;4.40;;;1.33;;
77876;SDS011;67251;50.844;7.978;2024-03-02T08:45:48;4.03;;;1.42;;
77876;SDS011;67251;50.844;7.978;2024-03-02T08:48:13;4.75;;;1.80;;
77876;SDS011;67251;50.844;7.978;2024-03-02T08:50:39;3.75;;;1.20;;
77876;SDS011;67251;50.844;7.978;2024-03-02T08:53:04;4.68;;;1.52;;
77876;SDS011;67251;50.844;7.978;2024-03-02T08:55:29;3.90;;;1.33;;
77876;SDS011;67251;50.844;7.978;2024-03-02T08:57:55;4.38;;;1.40;;
77876;SDS011;67251;50.844;7.978;2024-03-02T09:00:21;3.28;;;1.30;;
77876;SDS011;67251;50.844;7.978;2024-03-02T09:02:46;4.50;;;1.55;;
77876;SDS011;67251;50.844;7.978;2024-03-02T09:05:12;4.20;;;1.38;;
77876;SDS011;67251;50.844;7.978;2024-03-02T09:07:37;5.15;;;1.50;;
77876;SDS011;67251;50.844;7.978;2024-03-02T09:10:04;4.85;;;1.80;;
77876;SDS011;67251;50.844;7.978;2024-03-02T09:12:30;3.53;;;1.38;;
77876;SDS011;67251;50.844;7.978;2024-03-02T09:14:55;4.20;;;1.48;;
77876;SDS011;67251;50.844;7.978;2024-03-02T09:17:21;3.83;;;1.42;;
77876;SDS011;67251;50.844;7.978;2024-03-02T09:22:45;3.60;;;1.52;;
77876;SDS011;67251;50.844;7.978;2024-03-02T09:25:12;4.30;;;1.50;;
77876;SDS011;67251;50.844;7.978;2024-03-02T09:27:38;4.93;;;1.95;;
77876;SDS011;67251;50.844;7.978;2024-03-02T09:30:08;3.75;;;1.30;;
77876;SDS011;67251;50.844;7.978;2024-03-02T09:32:35;5.18;;;1.73;;
77876;SDS011;67251;50.844;7.978;2024-03-02T09:35:01;3.83;;;1.48;;
77876;SDS011;67251;50.844;7.978;2024-03-02T09:37:26;4.20;;;1.50;;
77876;SDS011;67251;50.844;7.978;2024-03-02T09:39:53;3.95;;;1.60;;
77876;SDS011;67251;50.844;7.978;2024-03-02T09:42:19;4.28;;;1.45;;
77876;SDS011;67251;50.844;7.978;2024-03-02T09:44:44;3.83;;;1.50;;
77876;SDS011;67251;50.844;7.978;2024-03-02T09:47:10;3.53;;;1.10;;
77876;SDS011;67251;50.844;7.978;2024-03-02T09:49:35;3.40;;;1.15;;
77876;SDS011;67251;50.844;7.978;2024-03-02T09:52:01;3.97;;;1.20;;
77876;SDS011;67251;50.844;7.978;2024-03-02T09:54:28;4.97;;;1.77;;
77876;SDS011;67251;50.844;7.978;2024-03-02T09:56:53;3.95;;;1.60;;
77876;SDS011;67251;50.844;7.978;2024-03-02T09:59:19;3.72;;;1.50;;
77876;SDS011;67251;50.844;7.978;2024-03-02T10:02:01;5.63;;;1.30;;
77876;SDS011;67251;50.844;7.978;2024-03-02T10:04:28;3.90;;;1.40;;
77876;SDS011;67251;50.844;7.978;2024-03-02T10:07:13;3.95;;;1.60;;
77876;SDS011;67251;50.844;7.978;2024-03-02T10:09:40;2.85;;;1.10;;
77876;SDS011;67251;50.844;7.978;2024-03-02T10:12:07;3.63;;;1.23;;
77876;SDS011;67251;50.844;7.978;2024-03-02T10:14:34;4.20;;;1.23;;
77876;SDS011;67251;50.844;7.978;2024-03-02T10:17:05;2.58;;;0.95;;
77876;SDS011;67251;50.844;7.978;2024-03-02T10:19:32;3.25;;;1.25;;
77876;SDS011;67251;50.844;7.978;2024-03-02T10:21:58;4.55;;;1.20;;
77876;SDS011;67251;50.844;7.978;2024-03-02T10:24:24;3.53;;;1.33;;
77876;SDS011;67251;50.844;7.978;2024-03-02T10:26:50;3.80;;;1.23;;
77876;SDS011;67251;50.844;7.978;2024-03-02T10:29:16;4.80;;;1.63;;
77876;SDS011;67251;50.844;7.978;2024-03-02T10:31:46;3.65;;;1.20;;
77876;SDS011;67251;50.844;7.978;2024-03-02T10:36:38;3.45;;;1.05;;
77876;SDS011;67251;50.844;7.978;2024-03-02T10:39:06;2.88;;;0.93;;
77876;SDS011;67251;50.844;7.978;2024-03-02T10:41:33;3.00;;;1.00;;
77876;SDS011;67251;50.844;7.978;2024-03-02T10:44:04;3.85;;;1.20;;
77876;SDS011;67251;50.844;7.978;2024-03-02T10:46:31;3.53;;;1.20;;
77876;SDS011;67251;50.844;7.978;2024-03-02T10:48:58;3.30;;;1.10;;
77876;SDS011;67251;50.844;7.978;2024-03-02T10:51:29;2.90;;;1.05;;
77876;SDS011;67251;50.844;7.978;2024-03-02T10:54:01;2.75;;;0.80;;
77876;SDS011;67251;50.844;7.978;2024-03-02T10:56:29;2.83;;;0.95;;
77876;SDS011;67251;50.844;7.978;2024-03-02T11:01:29;4.68;;;2.17;;
77876;SDS011;67251;50.844;7.978;2024-03-02T11:03:56;2.65;;;0.90;;
77876;SDS011;67251;50.844;7.978;2024-03-02T11:06:23;3.90;;;1.10;;
77876;SDS011;67251;50.844;7.978;2024-03-02T11:08:52;3.53;;;1.08;;
77876;SDS011;67251;50.844;7.978;2024-03-02T11:11:25;4.57;;;1.70;;
77876;SDS011;67251;50.844;7.978;2024-03-02T11:13:59;2.92;;;1.05;;
77876;SDS011;67251;50.844;7.978;2024-03-02T11:16:33;9.40;;;5.55;;
77876;SDS011;67251;50.844;7.978;2024-03-02T11:19:21;4.88;;;2.20;;
77876;SDS011;67251;50.844;7.978;2024-03-02T11:21:46;3.08;;;1.00;;
77876;SDS011;67251;50.844;7.978;2024-03-02T11:26:47;2.70;;;0.90;;
77876;SDS011;67251;50.844;7.978;2024-03-02T11:32:00;3.85;;;1.15;;
77876;SDS011;67251;50.844;7.978;2024-03-02T11:34:36;3.33;;;1.20;;
77876;SDS011;67251;50.844;7.978;2024-03-02T11:37:04;2.05;;;0.70;;
77876;SDS011;67251;50.844;7.978;2024-03-02T11:39:30;3.20;;;0.85;;
77876;SDS011;67251;50.844;7.978;2024-03-02T11:41:57;2.17;;;0.88;;
77876;SDS011;67251;50.844;7.978;2024-03-02T11:44:29;3.17;;;0.70;;
77876;SDS011;67251;50.844;7.978;2024-03-02T11:46:58;2.53;;;0.90;;
77876;SDS011;67251;50.844;7.978;2024-03-02T11:52:06;3.53;;;1.20;;
77876;SDS011;67251;50.844;7.978;2024-03-02T11:54:33;3.47;;;0.80;;
77876;SDS011;67251;50.844;7.978;2024-03-02T11:57:04;3.20;;;0.90;;
77876;SDS011;67251;50.844;7.978;2024-03-02T11:59:30;3.85;;;0.80;;
77876;SDS011;67251;50.844;7.978;2024-03-02T12:01:55;3.70;;;1.05;;
77876;SDS011;67251;50.844;7.978;2024-03-02T12:04:22;2.58;;;0.85;;
77876;SDS011;67251;50.844;7.978;2024-03-02T12:06:48;3.20;;;0.90;;
77876;SDS011;67251;50.844;7.978;2024-03-02T12:09:20;2.78;;;1.10;;
77876;SDS011;67251;50.844;7.978;2024-03-02T12:11:46;2.95;;;1.02;;
77876;SDS011;67251;50.844;7.978;2024-03-02T12:14:12;3.08;;;0.82;;
77876;SDS011;67251;50.844;7.978;2024-03-02T12:16:43;3.67;;;1.02;;
77876;SDS011;67251;50.844;7.978;2024-03-02T12:19:09;2.03;;;0.70;;
77876;SDS011;67251;50.844;7.978;2024-03-02T12:21:34;3.45;;;1.30;;
77876;SDS011;67251;50.844;7.978;2024-03-02T12:24:00;3.90;;;0.98;;
77876;SDS011;67251;50.844;7.978;2024-03-02T12:26:26;3.00;;;1.30;;
77876;SDS011;67251;50.844;7.978;2024-03-02T12:28:53;3.70;;;1.50;;
77876;SDS011;67251;50.844;7.978;2024-03-02T12:31:19;3.05;;;1.00;;
77876;SDS011;67251;50.844;7.978;2024-03-02T12:33:44;5.80;;;5.10;;
77876;SDS011;67251;50.844;7.978;2024-03-02T12:36:12;3.90;;;2.75;;
77876;SDS011;67251;50.844;7.978;2024-03-02T12:38:42;3.58;;;1.75;;
77876;SDS011;67251;50.844;7.978;2024-03-02T12:41:08;3.25;;;0.80;;
77876;SDS011;67251;50.844;7.978;2024-03-02T12:43:34;5.25;;;3.65;;
77876;SDS011;67251;50.844;7.978;2024-03-02T12:45:59;5.07;;;2.30;;
77876;SDS011;67251;50.844;7.978;2024-03-02T12:48:25;2.95;;;0.90;;
77876;SDS011;67251;50.844;7.978;2024-03-02T12:50:50;3.47;;;1.10;;
77876;SDS011;67251;50.844;7.978;2024-03-02T12:53:16;3.25;;;0.80;;
77876;SDS011;67251;50.844;7.978;2024-03-02T12:55:41;3.30;;;1.30;;
77876;SDS011;67251;50.844;7.978;2024-03-02T12:58:15;3.35;;;1.58;;
77876;SDS011;67251;50.844;7.978;2024-03-02T13:00:41;2.88;;;1.20;;
77876;SDS011;67251;50.844;7.978;2024-03-02T13:03:07;7.70;;;4.97;;
77876;SDS011;67251;50.844;7.978;2024-03-02T13:05:32;4.25;;;2.00;;
77876;SDS011;67251;50.844;7.978;2024-03-02T13:07:58;3.63;;;1.85;;
77876;SDS011;67251;50.844;7.978;2024-03-02T13:10:24;3.20;;;1.42;;
77876;SDS011;67251;50.844;7.978;2024-03-02T13:12:50;4.57;;;2.05;;
77876;SDS011;67251;50.844;7.978;2024-03-02T13:15:15;7.75;;;3.45;;
77876;SDS011;67251;50.844;7.978;2024-03-02T13:17:41;6.10;;;3.80;;
77876;SDS011;67251;50.844;7.978;2024-03-02T13:20:06;3.10;;;1.20;;
77876;SDS011;67251;50.844;7.978;2024-03-02T13:22:35;3.22;;;1.02;;
77876;SDS011;67251;50.844;7.978;2024-03-02T13:25:01;4.30;;;2.03;;
77876;SDS011;67251;50.844;7.978;2024-03-02T13:27:30;5.47;;;3.92;;
77876;SDS011;67251;50.844;7.978;2024-03-02T13:29:57;4.18;;;2.15;;
77876;SDS011;67251;50.844;7.978;2024-03-02T13:32:22;3.70;;;1.40;;
77876;SDS011;67251;50.844;7.978;2024-03-02T13:34:49;7.25;;;6.28;;
77876;SDS011;67251;50.844;7.978;2024-03-02T13:37:15;2.40;;;0.65;;
77876;SDS011;67251;50.844;7.978;2024-03-02T13:39:40;3.38;;;1.58;;
77876;SDS011;67251;50.844;7.978;2024-03-02T13:42:07;1.85;;;0.70;;
77876;SDS011;67251;50.844;7.978;2024-03-02T13:44:34;5.07;;;1.15;;
77876;SDS011;67251;50.844;7.978;2024-03-02T13:47:00;2.58;;;1.00;;
77876;SDS011;67251;50.844;7.978;2024-03-02T13:49:26;2.78;;;0.90;;
77876;SDS011;67251;50.844;7.978;2024-03-02T13:52:04;4.07;;;2.38;;
77876;SDS011;67251;50.844;7.978;2024-03-02T13:54:54;3.60;;;1.95;;
77876;SDS011;67251;50.844;7.978;2024-03-02T13:57:19;3.45;;;0.95;;
77876;SDS011;67251;50.844;7.978;2024-03-02T13:59:45;3.38;;;0.80;;
77876;SDS011;67251;50.844;7.978;2024-03-02T14:02:10;5.15;;;2.65;;
77876;SDS011;67251;50.844;7.978;2024-03-02T14:04:37;4.78;;;2.33;;
77876;SDS011;67251;50.844;7.978;2024-03-02T14:07:02;4.20;;;1.73;;
77876;SDS011;67251;50.844;7.978;2024-03-02T14:09:28;5.80;;;5.20;;
77876;SDS011;67251;50.844;7.978;2024-03-02T14:11:54;2.67;;;0.82;;
77876;SDS011;67251;50.844;7.978;2024-03-02T14:14:20;2.42;;;0.90;;
77876;SDS011;67251;50.844;7.978;2024-03-02T14:16:45;2.42;;;0.77;;
77876;SDS011;67251;50.844;7.978;2024-03-02T14:19:11;2.55;;;0.80;;
77876;SDS011;67251;50.844;7.978;2024-03-02T14:21:37;2.40;;;0.75;;
77876;SDS011;67251;50.844;7.978;2024-03-02T14:24:03;4.13;;;2.20;;
77876;SDS011;67251;50.844;7.978;2024-03-02T14:26:29;3.42;;;1.63;;
77876;SDS011;67251;50.844;7.978;2024-03-02T14:28:55;3.47;;;1.30;;
77876;SDS011;67251;50.844;7.978;2024-03-02T14:31:21;2.88;;;0.90;;
77876;SDS011;67251;50.844;7.978;2024-03-02T14:33:46;2.05;;;0.93;;
77876;SDS011;67251;50.844;7.978;2024-03-02T14:36:12;2.92;;;1.10;;
77876;SDS011;67251;50.844;7.978;2024-03-02T14:38:38;1.15;;;0.50;;
77876;SDS011;67251;50.844;7.978;2024-03-02T14:41:04;1.58;;;0.45;;
77876;SDS011;67251;50.844;7.978;2024-03-02T14:43:29;2.15;;;0.70;;
77876;SDS011;67251;50.844;7.978;2024-03-02T14:45:55;3.20;;;0.50;;
77876;SDS011;67251;50.844;7.978;2024-03-02T14:48:21;1.45;;;0.45;;
77876;SDS011;67251;50.844;7.978;2024-03-02T14:50:46;1.23;;;0.40;;
77876;SDS011;67251;50.844;7.978;2024-03-02T14:53:12;1.83;;;0.60;;
77876;SDS011;67251;50.844;7.978;2024-03-02T14:55:37;1.75;;;0.50;;
77876;SDS011;67251;50.844;7.978;2024-03-02T14:58:03;1.80;;;0.50;;
77876;SDS011;67251;50.844;7.978;2024-03-02T15:00:28;2.13;;;0.63;;
77876;SDS011;67251;50.844;7.978;2024-03-02T15:02:54;1.70;;;0.70;;
77876;SDS011;67251;50.844;7.978;2024-03-02T15:05:19;1.52;;;0.57;;
77876;SDS011;67251;50.844;7.978;2024-03-02T15:07:44;1.58;;;0.50;;
77876;SDS011;67251;50.844;7.978;2024-03-02T15:10:10;3.40;;;0.95;;